createdAt,value
2023-03-27T00:10:37.623Z,25.9703
2023-03-27T00:25:39.265Z,26.1133
2023-03-27T00:40:40.930Z,25.8601
2023-03-27T00:55:42.684Z,25.4899
2023-03-27T01:10:44.320Z,25.9963
2023-03-27T01:25:45.974Z,25.285
2023-03-27T01:40:47.615Z,25.415
2023-03-27T01:55:49.230Z,25.7394
2023-03-27T02:10:50.864Z,25.3432
2023-03-27T02:25:52.547Z,25.3203
2023-03-27T02:40:54.260Z,24.7093
2023-03-27T02:55:55.993Z,24.6604
2023-03-27T03:10:57.843Z,23.8383
2023-03-27T03:25:59.529Z,24.8424
2023-03-27T03:41:01.182Z,24.8944
2023-03-27T03:56:02.851Z,24.5013
2023-03-27T04:11:04.515Z,24.3973
2023-03-27T04:26:06.246Z,24.2023
2023-03-27T04:41:07.886Z,23.7993
2023-03-27T04:56:09.520Z,24.7285
2023-03-27T05:11:11.199Z,23.5944
2023-03-27T05:26:12.847Z,24.5725
2023-03-27T05:41:14.535Z,23.7603
2023-03-27T05:56:16.196Z,23.7665
2023-03-27T06:11:17.841Z,24.0878
2023-03-27T06:26:19.467Z,23.6136
2023-03-27T06:41:21.112Z,23.1072
2023-03-27T06:56:22.858Z,23.7826
2023-03-27T07:11:24.542Z,24.3286
2023-03-27T07:26:26.182Z,23.7925
2023-03-27T07:41:27.853Z,23.9745
2023-03-27T07:56:29.525Z,24.0395
2023-03-27T08:11:31.327Z,24.1305
2023-03-27T08:26:32.984Z,24.1076
2023-03-27T08:41:34.645Z,23.5325
2023-03-27T08:56:36.353Z,22.7983
2023-03-27T09:11:38.182Z,23.4514
2023-03-27T09:26:40.194Z,23.3895
2023-03-27T09:41:42.063Z,23.1004
2023-03-27T09:56:44.008Z,23.8606
2023-03-27T10:11:45.699Z,23.2075
2023-03-27T10:26:47.367Z,22.9054
2023-03-27T10:41:49.017Z,23.2985
2023-03-27T10:56:50.734Z,23.2106
2023-03-27T11:11:52.609Z,23.5195
2023-03-27T11:26:54.269Z,23.2205
2023-03-27T11:41:55.918Z,22.6225
2023-03-27T11:56:57.621Z,23.2855
2023-03-27T12:11:59.468Z,23.4347
2023-03-27T12:27:01.224Z,23.1815
2023-03-27T12:42:02.863Z,23.4576
2023-03-27T12:57:04.641Z,23.4768
2023-03-27T13:12:06.392Z,23.3344
2023-03-27T13:27:08.046Z,23.4056
2023-03-27T13:42:09.717Z,23.1586
2023-03-27T13:57:11.414Z,23.1976
2023-03-27T14:12:13.114Z,23.1326
2023-03-27T14:27:14.779Z,23.3115
2023-03-27T14:42:16.469Z,23.4186
2023-03-27T14:57:18.167Z,22.5024
2023-03-27T15:12:19.850Z,23.3926
2023-03-27T15:27:21.486Z,23.7758
2023-03-27T15:42:23.136Z,23.0515
2023-03-27T15:57:24.849Z,23.8866
2023-03-27T16:12:26.575Z,24.3874
2023-03-27T16:27:28.218Z,24.1794
2023-03-27T16:42:29.848Z,24.5174
2023-03-27T16:57:31.665Z,24.4524
2023-03-27T17:12:33.293Z,24.1243
2023-03-27T17:27:34.915Z,24.8232
2023-03-27T17:42:36.557Z,24.6963
2023-03-27T17:57:38.193Z,24.5403
2023-03-27T18:12:39.862Z,24.6635
2023-03-27T18:27:41.526Z,24.5564
2023-03-27T18:42:43.227Z,23.3375
2023-03-27T18:57:44.895Z,23.8934
2023-03-27T19:12:46.538Z,23.9516
2023-03-27T19:27:48.221Z,24.1206
2023-03-27T19:42:49.886Z,24.1206
2023-03-27T19:57:51.603Z,23.3115
2023-03-27T20:12:53.243Z,23.7176
2023-03-27T20:27:54.902Z,23.3796
2023-03-27T20:42:56.558Z,23.1976
2023-03-27T20:57:58.197Z,23.1227
2023-03-27T21:12:59.830Z,23.0416
2023-03-27T21:28:01.514Z,23.9745
2023-03-27T21:43:03.230Z,24.1404
2023-03-27T21:58:04.903Z,24.0005
2023-03-27T22:13:06.617Z,23.6984
2023-03-27T22:28:08.275Z,23.9225
2023-03-27T22:43:09.908Z,24.1237
2023-03-27T22:58:11.529Z,24.2605
2023-03-27T23:13:13.162Z,23.8965
2023-03-27T23:28:14.782Z,23.8544
2023-03-27T23:43:16.405Z,24.7545
2023-03-27T23:58:18.027Z,24.0556
